Time;durP1;ratioP1;P1;durP2;ratioP2;P2;SDS_P1;SDS_P2;PMS_P1;PMS_P2;Temp;Humidity;BMP_temperature;BMP_pressure;BME280_temperature;BME280_humidity;BME280_pressure;Samples;Min_cycle;Max_cycle;Signal;HPM_P1;HPM_P2
2022/02/20 00:01:51;;;;;;;2.95;0.80;;;10.00;43.30;;;;;;2284201;55;20992;-73
2022/02/20 00:04:17;;;;;;;6.45;1.00;;;10.00;43.30;;;;;;2285907;55;21010;-73
2022/02/20 00:06:44;;;;;;;4.78;1.17;;;10.00;43.10;;;;;;2358277;55;21010;-73
2022/02/20 00:09:11;;;;;;;5.22;1.30;;;10.00;43.00;;;;;;2271670;55;21533;-72
2022/02/20 00:11:37;;;;;;;5.18;1.00;;;10.00;43.10;;;;;;2374925;55;21901;-72
2022/02/20 00:14:04;;;;;;;4.93;1.15;;;10.00;43.00;;;;;;2274296;55;21560;-72
2022/02/20 00:16:31;;;;;;;5.32;1.08;;;10.00;43.20;;;;;;2521366;55;21384;-73
2022/02/20 00:18:57;;;;;;;7.47;1.40;;;10.10;43.00;;;;;;2287492;55;21418;-72
2022/02/20 00:21:24;;;;;;;4.20;1.00;;;10.00;42.90;;;;;;2286523;56;21457;-72
2022/02/20 00:23:50;;;;;;;3.28;0.90;;;10.00;42.80;;;;;;2286908;56;20957;-73
2022/02/20 00:26:16;;;;;;;5.43;0.93;;;10.00;42.80;;;;;;2286524;56;21297;-72
2022/02/20 00:28:43;;;;;;;4.68;1.42;;;10.00;42.80;;;;;;2286546;56;20960;-71
2022/02/20 00:31:09;;;;;;;6.28;1.23;;;10.00;42.80;;;;;;2286945;56;21776;-71
2022/02/20 00:33:35;;;;;;;3.30;0.82;;;10.00;42.90;;;;;;2286801;55;21021;-72
2022/02/20 00:36:02;;;;;;;4.35;0.73;;;10.00;42.80;;;;;;2519099;55;20998;-72
2022/02/20 00:38:28;;;;;;;7.43;1.20;;;10.10;43.00;;;;;;2269637;55;21022;-73
2022/02/20 00:40:55;;;;;;;4.25;1.10;;;10.10;43.00;;;;;;2285398;55;21501;-72
2022/02/20 00:43:21;;;;;;;4.60;1.05;;;10.10;43.00;;;;;;2286266;55;20994;-72
2022/02/20 00:45:47;;;;;;;4.05;1.00;;;10.10;43.00;;;;;;2310651;55;20961;-72
2022/02/20 00:48:18;;;;;;;4.07;1.20;;;10.10;43.10;;;;;;2282113;54;20944;-73
2022/02/20 00:50:45;;;;;;;3.67;0.80;;;10.00;43.10;;;;;;2289927;55;20948;-72
2022/02/20 00:53:12;;;;;;;4.28;1.10;;;10.10;43.20;;;;;;2286228;55;21032;-72
2022/02/20 00:55:38;;;;;;;3.10;1.10;;;10.00;43.20;;;;;;2521864;54;20972;-73
2022/02/20 00:58:05;;;;;;;5.07;1.10;;;10.00;43.20;;;;;;2287648;56;21489;-72
2022/02/20 01:00:31;;;;;;;5.70;1.25;;;10.10;43.30;;;;;;2520997;55;21076;-72
2022/02/20 01:02:57;;;;;;;5.20;1.17;;;10.00;43.30;;;;;;2287134;56;20952;-70
2022/02/20 01:05:24;;;;;;;9.45;1.17;;;10.00;43.30;;;;;;2401038;54;22119;-73
2022/02/20 01:07:52;;;;;;;5.07;1.42;;;10.10;43.50;;;;;;2286969;56;20972;-71
2022/02/20 01:10:18;;;;;;;5.50;1.15;;;10.00;43.60;;;;;;2313355;55;21045;-72
2022/02/20 01:12:44;;;;;;;5.37;1.20;;;10.00;43.70;;;;;;2288014;55;20976;-73
2022/02/20 01:15:11;;;;;;;3.45;0.90;;;10.00;43.80;;;;;;2398984;55;21394;-71
2022/02/20 01:17:38;;;;;;;4.40;0.80;;;10.00;43.90;;;;;;2287444;55;20986;-71
2022/02/20 01:20:05;;;;;;;5.78;1.20;;;10.00;44.10;;;;;;2337712;55;21100;-71
2022/02/20 01:22:32;;;;;;;6.62;1.37;;;10.00;44.20;;;;;;2286653;56;21012;-72
2022/02/20 01:24:58;;;;;;;6.85;1.23;;;10.00;44.40;;;;;;2442710;54;21529;-72
2022/02/20 01:27:25;;;;;;;5.18;1.25;;;9.90;45.30;;;;;;2287862;55;20996;-72
2022/02/20 01:29:51;;;;;;;4.37;0.90;;;9.90;45.50;;;;;;2521430;55;21040;-73
2022/02/20 01:32:18;;;;;;;3.40;0.98;;;9.90;45.50;;;;;;2290485;56;21514;-71
2022/02/20 01:34:44;;;;;;;3.03;1.00;;;9.90;45.60;;;;;;2515836;55;21040;-70
2022/02/20 01:37:11;;;;;;;7.20;1.10;;;9.90;45.70;;;;;;2289861;55;20974;-71
2022/02/20 01:39:37;;;;;;;4.03;1.37;;;9.90;45.90;;;;;;2287874;55;20973;-72
2022/02/20 01:42:04;;;;;;;5.28;0.90;;;9.90;46.00;;;;;;2273880;56;21009;-72
2022/02/20 01:44:33;;;;;;;5.10;0.98;;;9.90;46.10;;;;;;2400383;54;21010;-71
2022/02/20 01:47:08;;;;;;;5.18;1.27;;;9.90;46.30;;;;;;2287283;56;20968;-71
2022/02/20 01:49:34;;;;;;;5.80;1.08;;;9.90;46.50;;;;;;2395022;54;21027;-73
2022/02/20 01:52:01;;;;;;;2.47;0.68;;;9.80;46.40;;;;;;2299537;55;21001;-73
2022/02/20 01:54:27;;;;;;;5.47;0.98;;;9.80;46.50;;;;;;2287919;55;20951;-74
2022/02/20 01:56:54;;;;;;;3.05;0.90;;;9.80;46.60;;;;;;2288959;56;21016;-72
2022/02/20 01:59:20;;;;;;;4.07;1.10;;;9.80;46.70;;;;;;2288632;56;20964;-72
2022/02/20 02:01:47;;;;;;;4.95;1.00;;;9.80;46.80;;;;;;2472256;54;21040;-73
2022/02/20 02:04:13;;;;;;;4.55;0.98;;;9.80;46.90;;;;;;2291008;55;20990;-72
2022/02/20 02:06:39;;;;;;;4.32;0.90;;;9.80;46.90;;;;;;2285628;55;20932;-72
2022/02/20 02:09:06;;;;;;;3.75;0.75;;;9.80;47.00;;;;;;2297160;55;20930;-71
2022/02/20 02:11:33;;;;;;;4.15;0.95;;;9.80;47.20;;;;;;2290540;55;20940;-72
2022/02/20 02:13:59;;;;;;;5.45;1.30;;;9.80;47.20;;;;;;2286902;55;21866;-72
2022/02/20 02:16:26;;;;;;;6.03;1.23;;;9.80;47.20;;;;;;2281298;54;21541;-72
2022/02/20 02:18:52;;;;;;;4.87;1.10;;;9.70;47.20;;;;;;2270969;54;21559;-72
2022/02/20 02:21:18;;;;;;;2.72;0.80;;;9.80;48.00;;;;;;2336034;55;20952;-71
2022/02/20 02:23:45;;;;;;;4.18;1.12;;;9.70;47.40;;;;;;2523523;54;21692;-71
2022/02/20 02:26:12;;;;;;;3.62;0.80;;;9.70;47.50;;;;;;2291100;55;21009;-73
2022/02/20 02:28:38;;;;;;;4.00;1.00;;;9.70;47.60;;;;;;2288923;56;20977;-72
2022/02/20 02:31:04;;;;;;;3.85;0.80;;;9.70;47.60;;;;;;2288458;55;20957;-71
2022/02/20 02:33:35;;;;;;;4.62;1.00;;;9.70;47.70;;;;;;2288922;56;20997;-71
2022/02/20 02:36:02;;;;;;;3.40;0.73;;;9.70;47.80;;;;;;2287844;55;20960;-73
2022/02/20 02:38:29;;;;;;;3.58;0.90;;;9.70;47.90;;;;;;2322160;55;21798;-73
2022/02/20 02:40:57;;;;;;;4.12;0.90;;;9.70;48.10;;;;;;2442874;54;21029;-71
2022/02/20 02:43:24;;;;;;;3.50;0.80;;;9.70;48.30;;;;;;2325581;55;21462;-72
2022/02/20 02:45:51;;;;;;;5.57;1.02;;;9.70;48.30;;;;;;2286126;55;21034;-72
2022/02/20 02:48:19;;;;;;;4.12;1.05;;;9.70;48.50;;;;;;2286769;56;21549;-72
2022/02/20 02:50:48;;;;;;;4.70;0.80;;;9.70;48.50;;;;;;2287142;56;21001;-71
2022/02/20 02:53:15;;;;;;;3.08;0.60;;;9.70;48.70;;;;;;2287354;56;20969;-71
2022/02/20 02:55:48;;;;;;;3.62;0.80;;;9.70;48.70;;;;;;2286693;56;20960;-72
2022/02/20 02:58:22;;;;;;;2.55;0.73;;;9.70;48.80;;;;;;2286017;55;21040;-72
2022/02/20 03:00:48;;;;;;;4.80;0.90;;;9.70;48.80;;;;;;2286888;55;21285;-72
2022/02/20 03:03:16;;;;;;;3.53;0.60;;;9.70;48.90;;;;;;2328466;55;20929;-72
2022/02/20 03:05:42;;;;;;;2.35;0.70;;;9.70;49.10;;;;;;2286689;56;20960;-73
2022/02/20 03:08:08;;;;;;;2.25;0.70;;;9.60;49.00;;;;;;2287007;56;20973;-72
2022/02/20 03:10:35;;;;;;;3.53;0.70;;;9.70;49.10;;;;;;2287028;55;20961;-72
2022/02/20 03:13:02;;;;;;;3.45;0.82;;;9.70;49.10;;;;;;2287242;56;21040;-74
2022/02/20 03:15:28;;;;;;;2.17;0.65;;;9.70;49.20;;;;;;2286686;56;20929;-72
2022/02/20 03:17:55;;;;;;;1.65;0.57;;;9.70;49.20;;;;;;2287010;56;20944;-71
2022/02/20 03:20:21;;;;;;;3.85;0.98;;;9.70;49.30;;;;;;2480348;55;20979;-71
2022/02/20 03:22:47;;;;;;;2.28;0.60;;;9.70;49.30;;;;;;2374852;55;20998;-72
2022/02/20 03:25:15;;;;;;;3.50;0.70;;;9.70;49.40;;;;;;2287348;56;20941;-72
2022/02/20 03:27:42;;;;;;;3.65;0.90;;;9.70;49.50;;;;;;2286996;56;21372;-73
2022/02/20 03:30:09;;;;;;;3.20;0.90;;;9.70;49.40;;;;;;2239114;55;3049546;-72
2022/02/20 03:32:36;;;;;;;1.40;0.47;;;9.70;49.50;;;;;;2398698;55;20969;-72
2022/02/20 03:35:02;;;;;;;1.62;0.50;;;9.70;49.50;;;;;;2287148;56;20964;-72
2022/02/20 03:37:29;;;;;;;2.50;0.60;;;9.80;49.60;;;;;;2412244;55;20964;-72
2022/02/20 03:39:55;;;;;;;4.90;0.75;;;9.80;49.80;;;;;;2284915;55;20974;-71
2022/02/20 03:42:22;;;;;;;2.12;0.60;;;9.80;49.80;;;;;;2264755;56;21908;-72
2022/02/20 03:44:49;;;;;;;2.90;0.70;;;9.80;49.80;;;;;;2295320;55;20996;-71
2022/02/20 03:47:15;;;;;;;2.80;0.50;;;9.80;49.80;;;;;;2296397;55;20972;-71
2022/02/20 03:49:42;;;;;;;1.85;0.50;;;9.80;49.80;;;;;;2286886;56;20960;-73
2022/02/20 03:52:08;;;;;;;1.50;0.47;;;9.80;49.80;;;;;;2298821;55;20961;-71
2022/02/20 03:54:34;;;;;;;1.25;0.40;;;9.80;49.80;;;;;;2287104;56;21627;-74
2022/02/20 03:57:01;;;;;;;2.83;0.70;;;9.90;50.00;;;;;;2355249;54;21040;-72
2022/02/20 03:59:27;;;;;;;1.15;0.40;;;9.90;50.00;;;;;;2286770;56;20945;-72
2022/02/20 04:01:54;;;;;;;3.03;0.75;;;9.90;49.90;;;;;;2304653;55;21064;-72
2022/02/20 04:04:21;;;;;;;2.17;0.65;;;9.90;50.00;;;;;;2287386;56;21778;-72
2022/02/20 04:06:51;;;;;;;1.85;0.50;;;9.90;50.00;;;;;;2286128;55;21557;-71
2022/02/20 04:09:17;;;;;;;1.73;0.50;;;9.90;50.00;;;;;;2289586;56;20941;-72
2022/02/20 04:11:44;;;;;;;1.58;0.50;;;9.90;50.60;;;;;;2516028;54;21609;-72
2022/02/20 04:14:10;;;;;;;2.45;0.50;;;9.90;50.00;;;;;;2286922;56;21016;-72
2022/02/20 04:16:37;;;;;;;3.33;0.55;;;9.90;50.10;;;;;;2320109;55;21447;-73
2022/02/20 04:19:03;;;;;;;2.97;0.77;;;9.90;50.10;;;;;;2287236;56;21508;-73
2022/02/20 04:21:30;;;;;;;2.55;0.60;;;9.90;50.10;;;;;;2330058;55;20925;-72
2022/02/20 04:23:59;;;;;;;2.25;0.60;;;9.90;50.20;;;;;;2287396;56;20947;-72
2022/02/20 04:26:26;;;;;;;2.75;0.43;;;9.90;50.20;;;;;;2287123;55;21485;-72
2022/02/20 04:28:52;;;;;;;2.10;0.60;;;9.90;50.60;;;;;;2287243;56;21487;-71
2022/02/20 04:31:20;;;;;;;2.37;0.50;;;9.90;50.40;;;;;;2359721;55;21027;-72
2022/02/20 04:33:46;;;;;;;1.98;0.60;;;9.90;50.50;;;;;;2282519;55;20948;-73
2022/02/20 04:36:13;;;;;;;1.90;0.60;;;9.90;50.60;;;;;;2311180;55;21013;-72
2022/02/20 04:38:39;;;;;;;1.75;0.50;;;9.90;50.60;;;;;;2286976;56;20961;-72
2022/02/20 04:41:06;;;;;;;1.20;0.45;;;9.90;50.60;;;;;;2317684;55;20964;-71
2022/02/20 04:43:32;;;;;;;2.30;0.60;;;9.80;50.60;;;;;;2288492;55;21029;-72
2022/02/20 04:45:59;;;;;;;2.40;0.60;;;9.80;50.70;;;;;;2330808;55;20976;-70
2022/02/20 04:48:25;;;;;;;2.53;0.50;;;9.80;50.70;;;;;;2521890;55;21072;-72
2022/02/20 04:50:52;;;;;;;1.25;0.45;;;9.80;50.70;;;;;;2521857;54;21670;-72
2022/02/20 04:53:19;;;;;;;1.25;0.47;;;9.80;50.80;;;;;;2286470;55;20973;-74
2022/02/20 04:55:46;;;;;;;2.87;0.60;;;9.80;50.90;;;;;;2287002;56;21080;-72
2022/02/20 04:58:13;;;;;;;2.70;0.50;;;9.80;50.90;;;;;;2412892;55;20961;-73
2022/02/20 05:00:40;;;;;;;3.33;0.60;;;9.80;51.10;;;;;;2521472;55;21001;-72
2022/02/20 05:03:07;;;;;;;1.40;0.40;;;9.80;51.00;;;;;;2376019;55;20985;-73
2022/02/20 05:05:37;;;;;;;2.53;0.50;;;9.80;51.20;;;;;;2286861;56;20959;-71
2022/02/20 05:08:04;;;;;;;2.47;0.50;;;9.80;51.40;;;;;;2264514;55;20989;-72
2022/02/20 05:10:31;;;;;;;1.73;0.60;;;9.80;51.50;;;;;;2434545;55;21408;-73
2022/02/20 05:12:57;;;;;;;2.58;0.55;;;9.70;51.40;;;;;;2288998;55;21094;-73
2022/02/20 05:15:26;;;;;;;1.80;0.60;;;9.70;51.50;;;;;;2366265;54;20968;-73
2022/02/20 05:17:52;;;;;;;1.25;0.45;;;9.70;51.40;;;;;;2350939;54;21643;-72
2022/02/20 05:20:19;;;;;;;1.42;0.50;;;9.70;51.50;;;;;;2309814;55;21516;-72
2022/02/20 05:22:45;;;;;;;1.73;0.47;;;9.70;51.50;;;;;;2287454;56;21083;-72
2022/02/20 05:25:11;;;;;;;1.67;0.60;;;9.70;51.60;;;;;;2520687;55;22092;-71
2022/02/20 05:27:39;;;;;;;1.85;0.50;;;9.70;51.70;;;;;;2286759;56;21881;-72
2022/02/20 05:30:06;;;;;;;1.48;0.47;;;9.70;51.80;;;;;;2297411;55;21504;-72
2022/02/20 05:32:33;;;;;;;2.62;0.60;;;9.70;51.90;;;;;;2322794;55;21417;-73
2022/02/20 05:34:59;;;;;;;2.08;0.50;;;9.70;52.10;;;;;;2356911;54;26067;-72
2022/02/20 05:37:26;;;;;;;1.17;0.50;;;9.70;52.00;;;;;;2287067;56;21732;-72
2022/02/20 05:39:53;;;;;;;1.05;0.40;;;9.70;52.00;;;;;;2303119;55;20944;-69
2022/02/20 05:42:19;;;;;;;2.28;0.40;;;9.70;52.10;;;;;;2287105;56;20933;-73
2022/02/20 05:44:48;;;;;;;2.70;0.65;;;9.60;52.10;;;;;;2407739;55;21225;-73
2022/02/20 05:47:15;;;;;;;1.85;0.62;;;9.60;52.20;;;;;;2287223;56;21048;-73
2022/02/20 05:49:41;;;;;;;0.55;0.35;;;9.60;52.20;;;;;;2304654;55;20937;-73
2022/02/20 05:52:09;;;;;;;2.35;0.60;;;9.60;52.30;;;;;;2287183;56;20948;-73
2022/02/20 05:54:35;;;;;;;2.45;0.50;;;9.60;52.20;;;;;;2411220;54;20933;-72
2022/02/20 05:57:02;;;;;;;1.60;0.40;;;9.60;52.30;;;;;;2287239;56;20973;-72
2022/02/20 05:59:30;;;;;;;0.90;0.40;;;9.60;53.00;;;;;;2285825;55;21017;-73
2022/02/20 06:01:56;;;;;;;1.30;0.40;;;9.60;52.50;;;;;;2306798;55;21376;-73
2022/02/20 06:04:23;;;;;;;1.10;0.40;;;9.60;52.60;;;;;;2353363;55;20964;-72
2022/02/20 06:06:49;;;;;;;1.52;0.60;;;9.60;52.60;;;;;;2286317;56;21240;-72
2022/02/20 06:09:15;;;;;;;1.05;0.43;;;9.60;52.60;;;;;;2420190;54;21012;-73
2022/02/20 06:11:41;;;;;;;2.65;0.70;;;9.60;52.60;;;;;;2286848;56;21000;-71
2022/02/20 06:14:08;;;;;;;2.03;0.50;;;9.60;52.70;;;;;;2286018;56;20960;-72
2022/02/20 06:16:34;;;;;;;3.42;0.70;;;9.50;52.60;;;;;;2314433;55;21312;-72
2022/02/20 06:19:00;;;;;;;2.10;0.50;;;9.50;52.70;;;;;;2347451;54;21016;-72
2022/02/20 06:21:27;;;;;;;1.77;0.52;;;9.50;52.70;;;;;;2286372;56;20924;-72
2022/02/20 06:23:53;;;;;;;2.62;0.45;;;9.50;52.70;;;;;;2286428;56;20949;-72
2022/02/20 06:26:20;;;;;;;2.58;0.40;;;9.50;52.80;;;;;;2286428;56;20924;-72
2022/02/20 06:28:47;;;;;;;2.28;0.60;;;9.50;52.80;;;;;;2286049;55;21703;-72
2022/02/20 06:31:14;;;;;;;2.55;0.60;;;9.50;52.80;;;;;;2285611;55;20969;-72
2022/02/20 06:33:40;;;;;;;1.40;0.47;;;9.50;52.90;;;;;;2263645;56;20980;-72
2022/02/20 06:36:06;;;;;;;4.47;0.77;;;9.50;53.50;;;;;;2286589;54;21488;-72
2022/02/20 06:38:33;;;;;;;4.53;0.50;;;9.50;53.00;;;;;;2285806;55;21485;-71
2022/02/20 06:40:59;;;;;;;2.20;0.50;;;9.60;53.00;;;;;;2286930;56;21036;-73
2022/02/20 06:43:26;;;;;;;1.42;0.43;;;9.60;53.10;;;;;;2309716;55;20948;-72
2022/02/20 06:45:52;;;;;;;1.75;0.60;;;9.60;53.10;;;;;;2520832;55;20968;-72
2022/02/20 06:48:18;;;;;;;0.62;0.30;;;9.60;53.20;;;;;;2286331;55;20957;-72
2022/02/20 06:50:45;;;;;;;1.42;0.50;;;9.60;53.20;;;;;;2285970;56;21008;-72
2022/02/20 06:53:11;;;;;;;1.70;0.60;;;9.60;53.20;;;;;;2449442;55;21046;-71
2022/02/20 06:55:37;;;;;;;1.25;0.50;;;9.60;53.30;;;;;;2284017;55;20976;-71
2022/02/20 06:58:04;;;;;;;2.67;0.43;;;9.60;53.10;;;;;;2396591;54;20981;-72
2022/02/20 07:00:31;;;;;;;1.80;0.43;;;9.60;53.10;;;;;;2285934;56;20952;-70
2022/02/20 07:02:58;;;;;;;3.42;0.55;;;9.60;53.10;;;;;;2286036;56;21458;-72
2022/02/20 07:05:25;;;;;;;1.27;0.50;;;9.70;53.20;;;;;;2286807;56;20956;-72
2022/02/20 07:07:51;;;;;;;1.77;0.40;;;9.70;53.10;;;;;;2286349;55;20964;-72
2022/02/20 07:10:17;;;;;;;1.58;0.57;;;9.70;53.10;;;;;;2286859;55;21561;-73
2022/02/20 07:12:44;;;;;;;2.03;0.65;;;9.70;53.10;;;;;;2286381;56;20988;-72
2022/02/20 07:15:11;;;;;;;1.00;0.40;;;9.70;53.10;;;;;;2347604;55;21001;-72
2022/02/20 07:17:37;;;;;;;1.65;0.50;;;9.80;53.20;;;;;;2304644;55;20975;-72
2022/02/20 07:20:05;;;;;;;1.48;0.40;;;9.80;53.30;;;;;;2286388;56;20925;-72
2022/02/20 07:22:32;;;;;;;2.05;0.65;;;9.80;53.30;;;;;;2449631;55;20993;-72
2022/02/20 07:24:58;;;;;;;1.58;0.55;;;9.90;53.30;;;;;;2287210;55;21018;-72
2022/02/20 07:27:25;;;;;;;2.08;0.62;;;9.90;53.30;;;;;;2372796;54;21028;-72
2022/02/20 07:29:52;;;;;;;2.78;0.60;;;9.90;53.30;;;;;;2377008;55;20956;-71
2022/02/20 07:32:18;;;;;;;2.83;0.75;;;9.90;53.30;;;;;;2286839;56;20948;-71
2022/02/20 07:34:44;;;;;;;3.00;0.70;;;9.90;53.30;;;;;;2286534;56;20973;-72
2022/02/20 07:37:11;;;;;;;2.37;0.60;;;10.00;52.60;;;;;;2286397;56;20949;-71
2022/02/20 07:39:37;;;;;;;2.12;0.70;;;10.00;52.70;;;;;;2444548;54;21458;-73
2022/02/20 07:42:03;;;;;;;1.70;0.50;;;10.00;52.70;;;;;;2353520;55;21422;-72
2022/02/20 07:44:34;;;;;;;2.50;0.65;;;10.00;52.60;;;;;;2359729;54;21798;-72
2022/02/20 07:47:00;;;;;;;2.12;0.62;;;10.00;52.70;;;;;;2286382;55;21686;-72
2022/02/20 07:49:27;;;;;;;3.58;1.30;;;10.10;52.80;;;;;;2291420;55;20986;-72
2022/02/20 07:51:54;;;;;;;3.00;1.20;;;10.10;52.70;;;;;;2278486;54;20934;-71
2022/02/20 07:54:20;;;;;;;4.68;1.20;;;10.10;52.70;;;;;;2368291;55;20960;-71
2022/02/20 07:56:46;;;;;;;3.03;0.75;;;10.10;52.70;;;;;;2414800;54;21536;-73
2022/02/20 07:59:12;;;;;;;2.37;0.70;;;10.20;52.80;;;;;;2286133;56;21088;-73
2022/02/20 08:01:39;;;;;;;2.00;0.90;;;10.30;52.80;;;;;;2284985;55;20979;-72
2022/02/20 08:04:05;;;;;;;1.65;0.55;;;10.30;52.70;;;;;;2286789;56;21293;-72
2022/02/20 08:06:32;;;;;;;2.35;0.70;;;10.30;52.60;;;;;;2284099;54;20954;-72
2022/02/20 08:09:03;;;;;;;2.00;0.70;;;10.30;52.60;;;;;;2286564;56;21486;-73
2022/02/20 08:11:41;;;;;;;1.37;0.65;;;10.30;52.50;;;;;;2264027;56;20997;-71
2022/02/20 08:14:08;;;;;;;2.37;0.70;;;10.30;52.50;;;;;;2458499;55;20972;-73
2022/02/20 08:16:39;;;;;;;2.37;0.62;;;10.40;52.50;;;;;;2286038;56;20941;-72
2022/02/20 08:19:05;;;;;;;3.37;0.93;;;10.40;52.50;;;;;;2286927;56;20977;-72
2022/02/20 08:21:32;;;;;;;1.25;0.47;;;10.40;52.40;;;;;;2286268;56;20987;-72
2022/02/20 08:23:58;;;;;;;2.08;0.62;;;10.40;53.00;;;;;;2290767;55;21007;-72
2022/02/20 08:26:24;;;;;;;2.65;0.80;;;10.50;52.50;;;;;;2281803;55;21636;-73
2022/02/20 08:28:51;;;;;;;2.30;0.80;;;10.40;52.50;;;;;;2284783;55;20969;-73
2022/02/20 08:31:18;;;;;;;1.45;0.50;;;10.50;52.50;;;;;;2286469;56;21037;-73
2022/02/20 08:33:44;;;;;;;2.50;0.60;;;10.50;52.50;;;;;;2311465;54;21134;-73
2022/02/20 08:36:15;;;;;;;1.27;0.50;;;10.40;52.40;;;;;;2285793;55;20932;-73
2022/02/20 08:38:41;;;;;;;1.92;0.62;;;10.50;52.50;;;;;;2284386;55;20937;-72
2022/02/20 08:41:08;;;;;;;2.42;0.75;;;10.50;52.50;;;;;;2520802;55;20977;-72
2022/02/20 08:43:34;;;;;;;1.98;0.57;;;10.50;52.50;;;;;;2279626;54;20988;-72
2022/02/20 08:46:01;;;;;;;1.33;0.57;;;10.50;52.50;;;;;;2273003;55;21000;-73
2022/02/20 08:48:30;;;;;;;2.70;0.60;;;10.50;52.50;;;;;;2283411;55;20966;-73
2022/02/20 08:50:56;;;;;;;1.48;0.60;;;10.50;53.20;;;;;;2455072;54;21069;-71
2022/02/20 08:53:23;;;;;;;2.45;0.50;;;10.60;52.70;;;;;;2272930;55;20976;-73
2022/02/20 08:55:50;;;;;;;2.08;0.80;;;10.60;52.70;;;;;;2288870;55;21526;-72
2022/02/20 08:58:16;;;;;;;2.30;0.65;;;10.60;52.80;;;;;;2277216;55;21345;-71
2022/02/20 09:00:45;;;;;;;3.15;0.70;;;10.70;52.80;;;;;;2430404;54;20976;-72
2022/02/20 09:03:11;;;;;;;3.50;0.90;;;10.70;52.80;;;;;;2286226;56;21008;-72
2022/02/20 09:05:38;;;;;;;2.30;0.62;;;10.70;52.70;;;;;;2420920;55;21050;-71
2022/02/20 09:08:04;;;;;;;1.83;0.70;;;10.70;52.70;;;;;;2355714;54;21017;-72
2022/02/20 09:10:30;;;;;;;3.00;0.73;;;10.80;52.80;;;;;;2286404;56;20992;-72
2022/02/20 09:12:57;;;;;;;4.28;0.60;;;10.80;52.80;;;;;;2286635;56;21005;-72
2022/02/20 09:15:23;;;;;;;2.60;0.60;;;10.80;52.80;;;;;;2286580;56;21064;-72
2022/02/20 09:17:51;;;;;;;1.35;0.45;;;10.90;52.90;;;;;;2292158;55;21048;-71
2022/02/20 09:20:18;;;;;;;2.55;0.60;;;10.90;52.90;;;;;;2284313;55;20957;-72
2022/02/20 09:22:44;;;;;;;2.62;0.80;;;10.90;52.90;;;;;;2285999;56;21083;-71
2022/02/20 09:25:11;;;;;;;2.22;0.60;;;10.90;52.80;;;;;;2286665;56;20961;-72
2022/02/20 09:27:37;;;;;;;1.92;0.65;;;11.00;52.90;;;;;;2286010;56;21035;-72
2022/02/20 09:30:05;;;;;;;1.95;0.60;;;11.00;52.90;;;;;;2286284;56;21237;-72
2022/02/20 09:32:31;;;;;;;1.77;0.55;;;11.00;52.90;;;;;;2286143;56;21529;-73
2022/02/20 09:34:58;;;;;;;1.30;0.47;;;11.10;52.90;;;;;;2286732;56;21549;-73
2022/02/20 09:37:25;;;;;;;2.33;0.62;;;11.10;52.80;;;;;;2286373;56;21394;-73
2022/02/20 09:39:51;;;;;;;2.47;0.77;;;11.10;52.80;;;;;;2331251;55;21284;-71
2022/02/20 09:42:17;;;;;;;1.40;0.52;;;11.20;52.90;;;;;;2286440;55;20985;-73
2022/02/20 09:44:44;;;;;;;2.67;0.80;;;11.20;52.90;;;;;;2286498;56;21526;-72
2022/02/20 09:47:11;;;;;;;3.17;0.82;;;11.20;52.90;;;;;;2286440;56;20956;-73
2022/02/20 09:49:38;;;;;;;2.42;1.00;;;11.30;52.90;;;;;;2286157;56;20965;-72
2022/02/20 09:52:05;;;;;;;1.83;0.70;;;11.30;52.90;;;;;;2441971;55;21506;-73
2022/02/20 09:54:31;;;;;;;2.17;0.70;;;11.30;52.90;;;;;;2286303;56;21001;-73
2022/02/20 09:56:59;;;;;;;1.98;0.70;;;11.30;52.90;;;;;;2286392;56;21045;-73
2022/02/20 09:59:28;;;;;;;1.85;0.60;;;11.40;53.00;;;;;;2285265;56;21444;-73
2022/02/20 10:02:05;;;;;;;1.45;0.55;;;11.40;53.00;;;;;;2264268;55;20967;-73
2022/02/20 10:05:21;;;;;;;1.92;0.60;;;11.50;53.20;;;;;;2286344;56;20929;-72
2022/02/20 10:07:47;;;;;;;2.33;0.77;;;11.60;53.30;;;;;;2286587;56;21084;-72
2022/02/20 10:10:18;;;;;;;2.80;0.60;;;11.60;53.20;;;;;;2286674;56;21005;-72
2022/02/20 10:12:45;;;;;;;1.80;0.70;;;11.70;53.30;;;;;;2286476;56;20928;-72
2022/02/20 10:15:30;;;;;;;1.60;0.60;;;11.70;53.30;;;;;;2287116;54;20970;-72
2022/02/20 10:18:38;;;;;;;2.80;0.77;;;11.80;53.40;;;;;;2431499;54;20953;-72
2022/02/20 10:21:05;;;;;;;2.37;0.70;;;11.90;53.50;;;;;;2290052;55;22046;-73
2022/02/20 10:23:40;;;;;;;3.28;0.60;;;12.10;53.90;;;;;;2318077;55;21722;-73
2022/02/20 10:26:25;;;;;;;2.25;0.80;;;12.30;53.90;;;;;;2289702;56;20963;-73
2022/02/20 10:29:02;;;;;;;2.45;0.70;;;12.40;53.60;;;;;;2282542;55;21698;-73
2022/02/20 10:32:32;;;;;;;2.25;0.70;;;12.50;53.10;;;;;;2440909;54;20957;-73
2022/02/20 10:35:08;;;;;;;3.10;0.70;;;12.70;52.90;;;;;;2287581;56;21000;-73
2022/02/20 10:37:35;;;;;;;2.42;0.62;;;12.70;52.80;;;;;;2286909;55;20950;-73
2022/02/20 10:40:10;;;;;;;1.35;0.50;;;12.80;52.90;;;;;;2262672;55;21859;-72
2022/02/20 10:42:37;;;;;;;2.17;0.50;;;12.90;53.00;;;;;;2363921;55;21001;-73
2022/02/20 10:45:05;;;;;;;1.65;0.50;;;13.10;53.00;;;;;;2286531;56;21482;-74
2022/02/20 10:47:31;;;;;;;1.62;0.57;;;13.20;53.00;;;;;;2286403;56;21477;-74
2022/02/20 10:50:21;;;;;;;2.65;0.70;;;13.40;53.10;;;;;;2286922;56;21320;-73
2022/02/20 10:53:04;;;;;;;2.12;0.60;;;13.60;52.70;;;;;;2287445;56;21011;-72
2022/02/20 10:56:53;;;;;;;;;;;13.80;53.10;;;;;;2269829;55;20980;-74
2022/02/20 10:59:21;;;;;;;2.62;0.90;;;13.90;52.00;;;;;;2291090;55;20136;-73
2022/02/20 11:01:51;;;;;;;2.25;0.62;;;14.10;51.60;;;;;;2396040;54;21270;-74
2022/02/20 11:04:18;;;;;;;1.67;0.52;;;14.10;51.10;;;;;;2288296;55;20984;-72
2022/02/20 11:06:45;;;;;;;2.10;0.57;;;14.10;50.50;;;;;;2288410;56;20964;-72
2022/02/20 11:09:13;;;;;;;2.45;0.80;;;14.10;50.40;;;;;;2293462;55;21509;-74
2022/02/20 11:11:41;;;;;;;3.85;0.75;;;14.00;50.20;;;;;;2271142;55;21531;-74
2022/02/20 11:14:12;;;;;;;2.28;0.70;;;13.90;50.10;;;;;;2288298;56;21016;-72
2022/02/20 11:16:52;;;;;;;2.25;0.68;;;13.80;50.00;;;;;;2322203;55;20953;-73
2022/02/20 11:19:24;;;;;;;1.77;0.70;;;13.80;50.00;;;;;;2284615;55;21032;-73
2022/02/20 11:21:53;;;;;;;1.37;0.50;;;13.70;50.50;;;;;;2291377;55;20971;-73
2022/02/20 11:24:19;;;;;;;2.20;0.70;;;13.60;50.10;;;;;;2289956;55;21004;-74
2022/02/20 11:26:46;;;;;;;1.62;0.60;;;13.50;50.20;;;;;;2285521;55;20980;-71
2022/02/20 11:29:13;;;;;;;2.80;0.88;;;13.50;50.40;;;;;;2342438;55;21049;-73
2022/02/20 11:31:40;;;;;;;2.35;0.70;;;13.40;50.40;;;;;;2319714;55;20977;-73
2022/02/20 11:34:06;;;;;;;2.50;0.70;;;13.40;50.60;;;;;;2288365;55;20940;-73
2022/02/20 11:36:33;;;;;;;3.97;1.02;;;13.30;50.80;;;;;;2426464;55;20989;-74
2022/02/20 11:39:33;;;;;;;2.72;0.80;;;13.40;50.90;;;;;;2285736;54;20992;-73
2022/02/20 11:42:15;;;;;;;2.45;0.80;;;13.40;50.80;;;;;;2292257;55;21025;-73
2022/02/20 11:44:55;;;;;;;4.22;1.10;;;13.40;50.80;;;;;;2273639;54;20981;-72
2022/02/20 11:47:42;;;;;;;3.85;1.20;;;13.40;50.90;;;;;;2447008;54;21648;-72
2022/02/20 11:51:12;;;;;;;3.90;1.30;;;13.40;50.90;;;;;;2334997;55;21052;-73
2022/02/20 11:53:38;;;;;;;2.97;0.70;;;13.40;50.90;;;;;;2288865;56;20964;-72
2022/02/20 11:56:05;;;;;;;3.67;0.80;;;13.40;50.80;;;;;;2291571;56;20989;-73
2022/02/20 11:58:32;;;;;;;2.22;0.70;;;13.40;50.90;;;;;;2279377;54;21020;-72
2022/02/20 12:01:09;;;;;;;3.30;0.80;;;13.40;51.00;;;;;;2286872;55;20972;-73
2022/02/20 12:04:09;;;;;;;2.62;0.80;;;13.40;51.00;;;;;;2288537;55;21469;-72
2022/02/20 12:06:39;;;;;;;2.58;0.70;;;13.40;51.20;;;;;;2288487;55;20911;-73
2022/02/20 12:09:22;;;;;;;1.45;0.60;;;13.40;51.20;;;;;;2283370;56;21549;-73
2022/02/20 12:11:49;;;;;;;2.00;0.70;;;13.40;51.00;;;;;;2439129;54;21088;-71
2022/02/20 12:14:22;;;;;;;1.92;0.70;;;13.50;51.20;;;;;;2301030;54;20952;-71
2022/02/20 12:16:58;;;;;;;3.03;0.60;;;13.50;51.30;;;;;;2289017;55;21526;-72
2022/02/20 12:19:39;;;;;;;1.55;0.60;;;13.50;51.30;;;;;;2292081;56;20953;-72
2022/02/20 12:22:24;;;;;;;2.22;0.80;;;13.60;51.30;;;;;;2293609;55;20994;-72
2022/02/20 12:24:58;;;;;;;2.55;0.70;;;13.60;51.10;;;;;;2276863;55;21589;-73
2022/02/20 12:27:25;;;;;;;1.73;0.60;;;13.70;50.70;;;;;;2333885;55;20937;-72
2022/02/20 12:29:53;;;;;;;4.97;0.70;;;13.70;50.80;;;;;;2288825;56;21016;-72
2022/02/20 12:32:27;;;;;;;1.92;0.70;;;13.70;50.80;;;;;;2289036;56;21053;-73
2022/02/20 12:35:16;;;;;;;2.75;0.60;;;13.70;50.60;;;;;;2330528;55;20953;-73
2022/02/20 12:37:47;;;;;;;1.65;0.50;;;13.70;50.40;;;;;;2288930;56;21816;-73
2022/02/20 12:40:47;;;;;;;1.62;0.60;;;13.70;50.60;;;;;;2289317;56;21017;-73
2022/02/20 12:43:17;;;;;;;0.88;0.40;;;13.60;50.60;;;;;;2288746;55;20965;-72
2022/02/20 12:45:45;;;;;;;2.80;0.55;;;13.60;50.50;;;;;;2289316;56;21024;-72
2022/02/20 12:48:17;;;;;;;1.58;0.50;;;13.60;50.50;;;;;;2287863;55;20968;-73
2022/02/20 12:50:49;;;;;;;3.70;0.60;;;13.60;50.60;;;;;;2288889;56;21736;-72
2022/02/20 12:53:17;;;;;;;2.07;0.63;;;13.60;50.60;;;;;;2289311;56;20988;-73
2022/02/20 12:55:46;;;;;;;1.60;0.65;;;13.60;50.60;;;;;;2288899;56;20974;-73
2022/02/20 12:58:13;;;;;;;2.28;0.45;;;13.60;50.60;;;;;;2288201;55;21097;-72
2022/02/20 13:00:44;;;;;;;1.98;0.60;;;13.60;50.60;;;;;;2288891;56;20965;-71
2022/02/20 13:03:11;;;;;;;1.90;0.40;;;13.60;50.70;;;;;;2293482;54;21042;-72